Time;durP1;ratioP1;P1;durP2;ratioP2;P2;SDS_P1;SDS_P2;PMS_P1;PMS_P2;Temp;Humidity;BMP_temperature;BMP_pressure;BME280_temperature;BME280_humidity;BME280_pressure;Samples;Min_cycle;Max_cycle;Signal;HPM_P1;HPM_P2
2024/03/30 00:01:34;;;;;;;6.95;3.03;;;;;;;16.39;64.38;99707.63;5053690;28;20090;-79
2024/03/30 00:03:59;;;;;;;4.93;2.80;;;;;;;16.18;65.02;99718.75;5072038;28;20032;-78
2024/03/30 00:06:24;;;;;;;3.40;2.42;;;;;;;16.19;65.08;99718.72;5071648;28;20672;-79
2024/03/30 00:08:50;;;;;;;3.35;2.30;;;;;;;16.10;65.32;99723.38;5055461;28;20040;-81
2024/03/30 00:11:18;;;;;;;3.67;2.45;;;;;;;16.15;64.82;99727.59;5072839;28;20481;-79
2024/03/30 00:13:43;;;;;;;4.28;2.40;;;;;;;15.98;65.57;99721.06;5071942;28;20063;-80
2024/03/30 00:16:10;;;;;;;4.85;2.20;;;;;;;16.02;65.04;99730.59;5072584;28;20036;-80
2024/03/30 00:18:36;;;;;;;4.18;2.13;;;;;;;15.93;65.49;99726.44;5054806;28;20082;-80
2024/03/30 00:21:04;;;;;;;3.25;2.10;;;;;;;16.08;64.42;99719.91;5056926;28;20062;-80
2024/03/30 00:23:31;;;;;;;4.32;2.30;;;;;;;16.16;63.99;99712.69;5056990;28;20032;-79
2024/03/30 00:25:59;;;;;;;3.90;2.15;;;;;;;16.03;64.28;99716.56;5075209;28;20107;-78
2024/03/30 00:28:25;;;;;;;3.15;2.10;;;;;;;16.05;64.17;99710.31;5071561;28;20040;-78
2024/03/30 00:30:51;;;;;;;4.13;2.25;;;;;;;16.08;63.89;99712.88;5072241;28;20562;-80
2024/03/30 00:33:17;;;;;;;3.67;1.90;;;;;;;15.99;63.91;99710.50;5053975;28;20097;-79
2024/03/30 00:35:44;;;;;;;3.45;1.98;;;;;;;15.89;64.04;99716.91;5071079;28;20036;-78
2024/03/30 00:38:14;;;;;;;4.20;2.10;;;;;;;15.90;63.56;99717.78;5053895;28;20566;-78
2024/03/30 00:40:42;;;;;;;3.67;2.00;;;;;;;15.87;63.71;99720.47;5072090;28;20041;-79
2024/03/30 00:43:08;;;;;;;2.78;2.00;;;;;;;15.76;63.59;99721.63;5073761;28;20216;-80
2024/03/30 00:45:40;;;;;;;4.07;2.03;;;;;;;15.80;63.48;99717.13;5075252;28;20520;-79
2024/03/30 00:48:06;;;;;;;3.90;1.90;;;;;;;15.86;63.08;99724.03;5079080;28;20096;-79
2024/03/30 00:50:32;;;;;;;2.72;1.73;;;;;;;15.86;62.85;99714.34;5074436;28;20569;-80
2024/03/30 00:52:57;;;;;;;3.80;1.83;;;;;;;15.75;63.04;99713.78;5056127;28;20068;-79
2024/03/30 00:55:23;;;;;;;5.05;1.70;;;;;;;15.80;62.86;99712.75;5071404;28;20436;-79
2024/03/30 00:57:48;;;;;;;3.28;1.60;;;;;;;15.71;62.43;99699.00;5072053;28;20051;-81
2024/03/30 01:00:14;;;;;;;2.45;1.60;;;;;;;15.50;62.83;99707.38;5072095;28;20025;-79
2024/03/30 01:02:40;;;;;;;5.65;1.80;;;;;;;15.70;62.32;99708.66;5070681;28;20553;-79
2024/03/30 01:05:06;;;;;;;2.63;1.70;;;;;;;15.76;62.05;99715.50;5071196;28;20429;-80
2024/03/30 01:07:31;;;;;;;2.97;1.80;;;;;;;15.79;61.97;99715.44;5071424;28;20040;-79
2024/03/30 01:09:56;;;;;;;3.03;1.60;;;;;;;15.77;62.09;99712.84;5071628;28;20040;-79
2024/03/30 01:12:23;;;;;;;2.92;1.73;;;;;;;15.76;61.81;99719.00;5053287;28;20028;-81
2024/03/30 01:14:53;;;;;;;2.20;1.52;;;;;;;15.75;61.81;99726.91;5070526;28;20589;-79
2024/03/30 01:17:18;;;;;;;2.08;1.58;;;;;;;15.71;61.89;99726.16;5071741;28;20115;-80
2024/03/30 01:19:47;;;;;;;3.85;1.70;;;;;;;15.70;61.94;99721.78;5072022;28;25890;-80
2024/03/30 01:22:13;;;;;;;3.75;1.80;;;;;;;15.70;61.84;99716.53;5053505;28;20040;-80
2024/03/30 01:24:39;;;;;;;2.58;1.67;;;;;;;15.71;61.97;99715.63;5070111;28;20041;-80
2024/03/30 01:27:15;;;;;;;2.03;1.50;;;;;;;15.78;61.60;99711.94;5054241;28;20028;-79
2024/03/30 01:29:42;;;;;;;2.45;1.80;;;;;;;15.72;61.97;99716.50;5073713;28;20056;-78
2024/03/30 01:32:08;;;;;;;2.30;1.70;;;;;;;15.67;62.58;99697.38;5073214;28;20020;-81
2024/03/30 01:34:34;;;;;;;3.08;1.75;;;;;;;15.68;62.32;99696.44;5071533;28;20028;-80
2024/03/30 01:36:59;;;;;;;5.82;1.90;;;;;;;15.61;63.20;99701.03;5071492;28;20356;-80
2024/03/30 01:39:25;;;;;;;3.72;2.10;;;;;;;15.58;63.19;99706.34;5070771;28;20028;-80
2024/03/30 01:41:50;;;;;;;3.42;2.15;;;;;;;15.57;63.11;99704.59;5071584;28;20078;-81
2024/03/30 01:44:15;;;;;;;2.67;1.73;;;;;;;15.58;63.76;99705.47;5056579;28;20080;-80
2024/03/30 01:46:53;;;;;;;3.85;2.10;;;;;;;15.37;65.71;99699.81;5086429;28;20464;-80
2024/03/30 01:49:20;;;;;;;2.97;1.90;;;;;;;15.43;65.57;99694.41;5070555;28;20064;-80
2024/03/30 01:51:47;;;;;;;3.20;2.00;;;;;;;15.49;65.12;99688.13;5087124;28;20032;-79
2024/03/30 01:54:19;;;;;;;2.88;1.98;;;;;;;15.43;65.48;99683.91;5085258;28;20032;-81
2024/03/30 01:56:45;;;;;;;4.82;1.90;;;;;;;15.47;65.38;99682.06;5084152;28;20074;-80
2024/03/30 01:59:10;;;;;;;3.25;1.90;;;;;;;15.53;64.49;99676.69;5072445;28;20028;-79
2024/03/30 02:01:40;;;;;;;4.72;2.00;;;;;;;15.51;64.79;99674.97;5088923;28;20052;-79
2024/03/30 02:04:06;;;;;;;3.42;2.05;;;;;;;15.44;65.30;99672.50;5088946;28;20029;-81
2024/03/30 02:06:31;;;;;;;3.10;2.00;;;;;;;15.43;65.26;99675.16;5083200;28;20040;-80
2024/03/30 02:08:59;;;;;;;3.00;1.98;;;;;;;15.43;65.41;99673.41;5083578;28;20031;-81
2024/03/30 02:11:25;;;;;;;3.70;2.22;;;;;;;15.49;65.17;99671.53;5064063;28;20041;-79
2024/03/30 02:13:50;;;;;;;3.20;2.10;;;;;;;15.50;65.01;99671.47;5062872;28;20506;-80
2024/03/30 02:16:18;;;;;;;4.55;2.40;;;;;;;15.49;65.23;99664.50;5079636;28;20039;-81
2024/03/30 02:18:47;;;;;;;3.75;2.35;;;;;;;15.49;64.93;99671.53;5080263;28;20081;-80
2024/03/30 02:21:12;;;;;;;4.88;2.60;;;;;;;15.40;65.51;99675.25;5081632;28;20037;-81
2024/03/30 02:23:37;;;;;;;3.88;2.40;;;;;;;15.28;65.90;99678.19;5062856;28;20032;-80
2024/03/30 02:26:06;;;;;;;4.38;2.33;;;;;;;15.34;65.61;99688.53;5083857;28;20041;-80
2024/03/30 02:28:31;;;;;;;5.45;2.20;;;;;;;15.37;65.18;99688.44;5083102;28;20120;-80
2024/03/30 02:30:57;;;;;;;3.67;2.30;;;;;;;15.35;65.45;99691.13;5082686;28;20040;-81
2024/03/30 02:33:23;;;;;;;4.10;2.47;;;;;;;15.22;65.69;99689.69;5063255;28;20074;-79
2024/03/30 02:35:51;;;;;;;3.78;2.30;;;;;;;15.21;65.36;99690.59;5079514;28;20485;-79
2024/03/30 02:38:17;;;;;;;3.47;2.40;;;;;;;15.32;64.93;99693.81;5062805;28;20037;-80
2024/03/30 02:40:52;;;;;;;4.57;2.55;;;;;;;15.30;64.74;99689.53;5061174;28;20604;-79
2024/03/30 02:43:20;;;;;;;5.22;2.30;;;;;;;15.34;64.69;99685.91;5079355;28;20047;-81
2024/03/30 02:45:46;;;;;;;4.35;2.60;;;;;;;15.26;64.70;99682.59;5078693;28;20063;-81
2024/03/30 02:48:11;;;;;;;4.50;2.22;;;;;;;15.24;64.77;99689.66;5080573;28;20032;-80
2024/03/30 02:50:36;;;;;;;4.72;2.47;;;;;;;15.28;64.41;99676.41;5077609;28;20491;-80
2024/03/30 02:53:02;;;;;;;3.05;2.10;;;;;;;15.34;64.33;99681.53;5078329;28;20043;-81
2024/03/30 02:55:27;;;;;;;3.88;2.35;;;;;;;15.36;63.91;99679.72;5085366;28;20043;-79
2024/03/30 02:57:53;;;;;;;3.28;1.98;;;;;;;15.27;64.25;99685.19;5090388;28;20041;-80
2024/03/30 03:00:18;;;;;;;3.58;2.30;;;;;;;15.21;64.05;99677.47;5084852;28;20033;-81
2024/03/30 03:02:47;;;;;;;2.67;1.85;;;;;;;15.27;63.92;99679.94;5081266;28;20033;-80
2024/03/30 03:05:12;;;;;;;3.00;1.90;;;;;;;15.30;63.67;99682.50;5081836;28;20033;-80
2024/03/30 03:07:37;;;;;;;3.08;2.00;;;;;;;15.41;63.07;99683.09;5082706;28;20040;-79
2024/03/30 03:10:03;;;;;;;3.08;1.88;;;;;;;15.42;63.01;99683.97;5088263;28;20033;-80
2024/03/30 03:12:30;;;;;;;4.32;1.73;;;;;;;15.37;63.09;99680.56;5086433;28;20052;-80
2024/03/30 03:15:04;;;;;;;2.65;1.80;;;;;;;15.28;63.35;99680.81;5090669;28;20033;-79
2024/03/30 03:17:31;;;;;;;3.65;1.70;;;;;;;15.41;63.19;99682.22;5076284;28;20032;-80
2024/03/30 03:19:56;;;;;;;3.28;1.60;;;;;;;15.24;63.37;99681.78;5090612;28;20074;-79
2024/03/30 03:22:21;;;;;;;3.38;1.70;;;;;;;15.16;63.66;99678.47;5089134;28;20004;-81
2024/03/30 03:24:47;;;;;;;2.63;1.63;;;;;;;15.23;63.42;99687.94;5091891;28;20043;-80
2024/03/30 03:27:12;;;;;;;3.30;1.90;;;;;;;15.21;63.67;99689.72;5089746;28;20017;-80
2024/03/30 03:29:37;;;;;;;3.17;1.70;;;;;;;15.09;63.66;99682.16;5087440;28;20200;-79
2024/03/30 03:32:05;;;;;;;3.05;1.70;;;;;;;15.03;63.46;99676.16;5085336;28;20028;-80
2024/03/30 03:34:31;;;;;;;3.05;1.50;;;;;;;15.05;63.47;99677.88;5082078;28;20063;-80
2024/03/30 03:36:56;;;;;;;3.42;1.60;;;;;;;15.18;63.13;99666.19;5083089;28;20112;-80
2024/03/30 03:39:23;;;;;;;6.35;1.77;;;;;;;15.12;63.35;99669.84;5087461;28;20028;-80
2024/03/30 03:41:48;;;;;;;2.75;1.73;;;;;;;14.86;64.31;99664.31;5088416;28;20036;-80
2024/03/30 03:44:14;;;;;;;2.65;1.70;;;;;;;14.99;64.03;99663.16;5089642;28;20024;-80
2024/03/30 03:46:41;;;;;;;2.67;1.70;;;;;;;15.00;63.95;99657.00;5086966;28;20057;-82
2024/03/30 03:49:09;;;;;;;2.88;1.70;;;;;;;15.14;63.18;99654.03;5085142;28;20048;-81
2024/03/30 03:51:41;;;;;;;3.05;1.92;;;;;;;14.83;63.97;99654.75;5084771;28;20040;-81
2024/03/30 03:54:06;;;;;;;3.60;2.05;;;;;;;14.97;63.97;99664.94;5089605;28;20556;-80
2024/03/30 03:56:31;;;;;;;4.78;2.10;;;;;;;15.04;63.60;99669.16;5093390;28;20040;-81
2024/03/30 03:58:59;;;;;;;3.55;1.90;;;;;;;14.94;63.90;99652.72;5094810;28;20028;-79
2024/03/30 04:01:25;;;;;;;3.63;2.30;;;;;;;14.94;63.98;99654.53;5093765;28;20070;-81
2024/03/30 04:03:59;;;;;;;3.85;2.13;;;;;;;14.97;63.90;99650.06;5093544;28;20036;-79
2024/03/30 04:06:24;;;;;;;;;;;;;;;15.10;63.64;99652.38;5093716;28;20044;-79
2024/03/30 04:08:53;;;;;;;5.50;2.35;;;;;;;15.05;63.68;99641.13;5067604;28;19913;-81
2024/03/30 04:11:24;;;;;;;4.05;2.45;;;;;;;14.95;63.87;99643.09;5085622;28;20044;-80
2024/03/30 04:13:53;;;;;;;5.93;2.78;;;;;;;14.84;64.29;99643.38;5083365;28;20052;-79
2024/03/30 04:16:18;;;;;;;4.55;2.90;;;;;;;14.91;64.89;99644.94;5081080;28;20618;-80
2024/03/30 04:18:43;;;;;;;4.60;2.83;;;;;;;14.78;65.77;99637.41;5080847;28;20028;-81
2024/03/30 04:21:15;;;;;;;3.67;2.83;;;;;;;14.84;65.67;99642.50;5083003;28;20060;-81
2024/03/30 04:23:43;;;;;;;4.70;2.90;;;;;;;14.90;65.37;99643.22;5083392;28;20524;-80
2024/03/30 04:26:11;;;;;;;4.30;2.75;;;;;;;14.71;66.49;99635.81;5082715;28;20096;-81
2024/03/30 04:28:37;;;;;;;11.45;3.08;;;;;;;14.42;67.87;99636.47;5084462;28;20468;-79
2024/03/30 04:31:05;;;;;;;5.05;3.20;;;;;;;14.58;67.27;99641.34;5087704;28;20149;-81
2024/03/30 04:33:30;;;;;;;5.47;2.92;;;;;;;14.84;66.16;99646.00;5085287;28;20047;-80
2024/03/30 04:36:04;;;;;;;4.97;3.05;;;;;;;14.87;66.08;99637.19;5081633;28;20036;-80
2024/03/30 04:38:30;;;;;;;3.92;2.70;;;;;;;14.93;65.75;99623.94;5064654;28;20036;-80
2024/03/30 04:41:08;;;;;;;5.32;3.10;;;;;;;14.74;66.51;99625.25;5083517;28;20032;-80
2024/03/30 04:43:39;;;;;;;4.47;3.00;;;;;;;14.62;68.20;99626.41;5065056;28;20048;-80
2024/03/30 04:46:06;;;;;;;5.55;3.50;;;;;;;14.34;69.18;99620.88;5082949;28;20040;-80
2024/03/30 04:48:32;;;;;;;5.03;3.30;;;;;;;14.54;68.38;99612.59;5081314;28;20039;-81
2024/03/30 04:51:03;;;;;;;5.97;3.47;;;;;;;14.56;68.17;99611.69;5083162;28;20040;-80
2024/03/30 04:53:32;;;;;;;5.28;3.38;;;;;;;14.34;69.55;99612.13;5080531;28;20052;-79
2024/03/30 04:56:03;;;;;;;5.25;3.60;;;;;;;14.30;69.93;99615.72;5067384;28;20059;-80
2024/03/30 04:58:30;;;;;;;5.28;3.63;;;;;;;14.55;69.37;99619.56;5092679;28;20055;-79
2024/03/30 05:01:06;;;;;;;6.40;3.80;;;;;;;14.55;69.09;99617.81;5073407;28;20123;-80
2024/03/30 05:03:32;;;;;;;4.95;3.60;;;;;;;14.64;68.73;99613.25;5083189;28;20029;-80
2024/03/30 05:06:04;;;;;;;5.82;3.80;;;;;;;14.66;68.36;99607.06;5083831;28;20425;-81
2024/03/30 05:08:30;;;;;;;5.55;3.67;;;;;;;14.58;68.52;99601.13;5065278;28;20040;-81
2024/03/30 05:10:55;;;;;;;5.70;3.90;;;;;;;14.38;69.20;99605.97;5081795;28;20434;-81
2024/03/30 05:13:22;;;;;;;5.00;3.65;;;;;;;14.49;69.00;99603.97;5082080;28;20031;-81
2024/03/30 05:15:47;;;;;;;5.68;3.95;;;;;;;14.50;69.43;99611.81;5081468;28;20039;-81
2024/03/30 05:18:13;;;;;;;7.05;4.10;;;;;;;14.61;68.99;99615.06;5062610;28;20028;-79
2024/03/30 05:20:49;;;;;;;5.88;3.70;;;;;;;14.68;68.52;99610.53;5080961;28;20043;-79
2024/03/30 05:23:24;;;;;;;5.90;3.80;;;;;;;14.77;68.09;99618.16;5080413;28;20043;-79
2024/03/30 05:25:51;;;;;;;6.55;4.20;;;;;;;14.72;68.07;99613.94;5081058;28;20038;-79
2024/03/30 05:28:19;;;;;;;6.57;4.10;;;;;;;14.65;69.17;99613.19;5079444;28;20055;-80
2024/03/30 05:30:47;;;;;;;7.32;4.40;;;;;;;14.60;69.73;99618.56;5077562;28;20036;-80
2024/03/30 05:33:13;;;;;;;7.68;4.32;;;;;;;14.61;69.76;99609.81;5083659;28;20029;-80
2024/03/30 05:35:39;;;;;;;6.15;4.03;;;;;;;14.72;69.15;99614.78;5080100;28;20489;-79
2024/03/30 05:38:05;;;;;;;7.50;4.05;;;;;;;14.71;68.98;99617.44;5062923;28;20033;-80
2024/03/30 05:40:32;;;;;;;9.50;4.50;;;;;;;14.60;69.43;99613.31;5082295;28;20047;-80
2024/03/30 05:43:01;;;;;;;7.55;5.00;;;;;;;14.59;70.01;99616.84;5082571;28;20028;-80
2024/03/30 05:45:27;;;;;;;6.28;4.38;;;;;;;14.64;69.67;99624.59;5086180;28;20032;-80
2024/03/30 05:47:56;;;;;;;7.20;5.05;;;;;;;14.61;70.13;99620.28;5066564;28;20035;-81
2024/03/30 05:50:23;;;;;;;7.75;4.75;;;;;;;14.54;71.20;99616.09;5084409;28;20033;-80
2024/03/30 05:52:48;;;;;;;7.07;4.72;;;;;;;14.54;70.59;99631.81;5083469;28;20032;-80
2024/03/30 05:55:14;;;;;;;8.38;5.10;;;;;;;14.56;70.95;99626.53;5083470;28;20397;-82
2024/03/30 05:57:40;;;;;;;9.38;5.20;;;;;;;14.51;71.44;99620.53;5084000;28;20100;-80
2024/03/30 06:00:19;;;;;;;8.82;5.85;;;;;;;14.51;71.34;99618.78;5082392;28;20041;-81
2024/03/30 06:02:47;;;;;;;9.07;5.80;;;;;;;14.47;71.97;99614.50;5059475;28;20397;-80
2024/03/30 06:05:14;;;;;;;7.65;5.50;;;;;;;14.50;72.36;99617.06;5077892;28;20029;-79
2024/03/30 06:07:40;;;;;;;8.35;5.68;;;;;;;14.46;72.47;99607.50;5077080;28;20505;-81
2024/03/30 06:10:08;;;;;;;8.00;5.60;;;;;;;14.54;72.15;99605.59;5078291;28;20491;-81
2024/03/30 06:12:37;;;;;;;9.13;6.03;;;;;;;14.41;72.98;99611.13;5077821;28;20044;-81
2024/03/30 06:15:06;;;;;;;8.75;5.90;;;;;;;14.38;73.53;99608.59;5062677;28;20048;-80
2024/03/30 06:17:38;;;;;;;9.32;6.03;;;;;;;14.40;73.74;99615.53;5058682;28;20025;-80
2024/03/30 06:20:05;;;;;;;7.53;5.20;;;;;;;14.44;73.62;99619.81;5082902;28;20050;-79
2024/03/30 06:22:32;;;;;;;11.35;5.95;;;;;;;14.43;73.50;99620.72;5068411;28;20046;-82
2024/03/30 06:25:01;;;;;;;9.38;5.80;;;;;;;14.37;74.25;99612.97;5076680;28;20024;-82
2024/03/30 06:27:26;;;;;;;7.68;5.45;;;;;;;14.46;74.25;99612.75;5056707;28;20040;-83
2024/03/30 06:29:55;;;;;;;8.05;5.95;;;;;;;14.51;74.12;99597.81;5075456;28;20319;-82
2024/03/30 06:32:25;;;;;;;7.72;5.80;;;;;;;14.43;74.65;99606.72;5056669;28;20035;-80
2024/03/30 06:34:50;;;;;;;7.85;5.57;;;;;;;14.52;74.49;99611.75;5072051;28;20084;-81
2024/03/30 06:37:16;;;;;;;8.20;5.60;;;;;;;14.56;74.29;99597.69;5075264;28;20025;-81
2024/03/30 06:45:18;;;;;;;8.40;5.97;;;;;;;14.51;74.89;99612.69;5076810;28;20508;-79
2024/03/30 06:47:43;;;;;;;9.07;5.70;;;;;;;14.57;74.42;99608.16;5076122;28;20029;-82
2024/03/30 06:50:11;;;;;;;9.23;6.20;;;;;;;14.59;74.50;99611.59;5075244;28;20128;-81
2024/03/30 06:52:37;;;;;;;14.20;6.20;;;;;;;14.59;74.45;99621.22;5076018;28;20033;-79
2024/03/30 06:55:05;;;;;;;10.15;6.53;;;;;;;14.46;75.44;99620.63;5060140;28;20036;-81
2024/03/30 06:57:30;;;;;;;10.93;6.63;;;;;;;14.45;75.68;99612.81;5082621;28;20043;-80
2024/03/30 06:59:56;;;;;;;10.75;6.10;;;;;;;14.58;75.57;99616.84;5084034;28;20119;-78
2024/03/30 07:02:21;;;;;;;8.75;6.05;;;;;;;14.67;75.35;99605.31;5079890;28;20036;-77
2024/03/30 07:04:52;;;;;;;11.45;6.38;;;;;;;14.65;75.45;99610.59;5075245;28;20086;-79
2024/03/30 07:07:21;;;;;;;8.70;6.28;;;;;;;14.52;75.66;99614.38;5077246;28;20036;-81
2024/03/30 07:09:46;;;;;;;10.90;6.90;;;;;;;14.38;76.30;99608.59;5076027;28;20062;-80
2024/03/30 07:12:11;;;;;;;8.98;6.32;;;;;;;14.38;76.21;99616.47;5077070;28;20037;-81
2024/03/30 07:14:37;;;;;;;8.45;5.95;;;;;;;14.42;76.14;99621.59;5074815;28;20060;-81
2024/03/30 07:17:02;;;;;;;8.00;6.13;;;;;;;14.53;76.01;99621.34;5078779;28;20028;-81
2024/03/30 07:19:30;;;;;;;9.20;6.32;;;;;;;14.42;76.48;99620.72;5077011;28;20044;-82
2024/03/30 07:21:56;;;;;;;10.25;6.30;;;;;;;14.50;76.53;99624.94;5079581;28;20096;-81
2024/03/30 07:24:25;;;;;;;9.38;6.47;;;;;;;14.61;76.29;99619.44;5089342;28;20729;-81
2024/03/30 07:26:50;;;;;;;9.40;6.60;;;;;;;14.51;76.33;99618.78;5089237;28;20598;-81
2024/03/30 07:29:16;;;;;;;9.90;6.32;;;;;;;14.57;76.25;99626.53;5090920;28;20036;-81
2024/03/30 07:31:44;;;;;;;10.00;6.40;;;;;;;14.52;76.79;99620.50;5067243;28;20515;-82
2024/03/30 07:34:15;;;;;;;8.90;6.10;;;;;;;14.25;77.64;99622.84;5077738;28;20052;-82
2024/03/30 07:36:41;;;;;;;9.27;6.53;;;;;;;14.35;76.98;99624.34;5078078;28;20047;-81
2024/03/30 07:39:07;;;;;;;8.27;6.25;;;;;;;14.43;77.20;99623.34;5060052;28;20029;-84
2024/03/30 07:41:32;;;;;;;9.18;6.38;;;;;;;14.38;77.44;99614.72;5060405;28;20512;-83
2024/03/30 07:43:57;;;;;;;8.40;5.95;;;;;;;14.50;77.75;99621.44;5078783;28;20020;-81
2024/03/30 07:46:23;;;;;;;8.70;6.43;;;;;;;14.38;77.46;99624.34;5063794;22;20045;-46
2024/03/30 07:48:48;;;;;;;8.85;6.47;;;;;;;14.19;78.41;99615.97;5051500;28;20036;-45
2024/03/30 07:51:14;;;;;;;9.95;6.72;;;;;;;14.37;77.88;99622.56;5052093;28;20059;-46
2024/03/30 07:53:39;;;;;;;9.27;6.05;;;;;;;14.38;78.13;99626.97;5069714;28;20036;-45
2024/03/30 07:56:04;;;;;;;9.07;6.80;;;;;;;14.44;77.56;99627.69;5073298;28;20540;-45
2024/03/30 07:58:30;;;;;;;10.30;6.88;;;;;;;14.32;78.22;99627.06;5071699;28;20041;-45
2024/03/30 08:00:56;;;;;;;10.10;7.07;;;;;;;14.40;77.70;99636.50;5072210;28;20029;-45
2024/03/30 08:03:21;;;;;;;11.02;7.35;;;;;;;14.41;77.84;99632.97;5071685;28;20434;-46
2024/03/30 08:05:57;;;;;;;12.98;8.32;;;;;;;14.37;78.36;99627.81;5071731;28;20035;-45
2024/03/30 08:08:23;;;;;;;13.43;9.15;;;;;;;14.33;77.92;99636.66;5072052;28;20453;-50
2024/03/30 08:10:48;;;;;;;13.13;8.45;;;;;;;14.38;77.55;99619.09;5071825;28;20024;-45
2024/03/30 08:13:13;;;;;;;12.30;8.13;;;;;;;14.38;77.73;99622.56;5073187;28;20086;-45
2024/03/30 08:15:40;;;;;;;13.48;8.70;;;;;;;14.34;77.87;99615.63;5072671;28;20040;-48
2024/03/30 08:18:06;;;;;;;12.50;8.77;;;;;;;14.27;78.56;99615.81;5072440;28;20465;-44
2024/03/30 08:20:31;;;;;;;12.68;8.88;;;;;;;14.33;78.46;99605.19;5071170;28;20060;-45
2024/03/30 08:22:56;;;;;;;12.32;8.32;;;;;;;14.38;78.18;99598.97;5071484;28;20082;-45
2024/03/30 08:25:22;;;;;;;12.35;8.70;;;;;;;14.30;78.09;99598.25;5071323;28;20111;-46
2024/03/30 08:27:47;;;;;;;16.83;8.77;;;;;;;14.28;78.13;99604.41;5071224;28;20060;-45
2024/03/30 08:30:12;;;;;;;12.95;8.32;;;;;;;14.07;78.91;99600.50;5070822;28;20124;-47
2024/03/30 08:32:37;;;;;;;12.38;8.70;;;;;;;14.20;78.96;99602.84;5070683;28;20120;-45
2024/03/30 08:35:03;;;;;;;13.35;8.70;;;;;;;14.21;78.33;99596.66;5071211;28;20498;-45
2024/03/30 08:37:28;;;;;;;13.93;8.75;;;;;;;14.25;78.83;99602.72;5070644;28;20047;-46
2024/03/30 08:39:54;;;;;;;14.52;9.43;;;;;;;14.05;79.57;99594.41;5069920;28;20037;-45
2024/03/30 08:42:19;;;;;;;16.85;10.20;;;;;;;13.55;81.20;99592.81;5071159;28;20484;-45
2024/03/30 08:44:44;;;;;;;18.52;11.15;;;;;;;13.86;80.42;99582.59;5070249;28;20052;-44
2024/03/30 08:47:10;;;;;;;19.83;11.80;;;;;;;13.89;80.57;99580.78;5071067;28;20086;-44
2024/03/30 08:49:36;;;;;;;19.83;11.73;;;;;;;13.95;80.17;99591.13;5070824;28;20123;-44
2024/03/30 08:52:01;;;;;;;21.30;12.48;;;;;;;13.76;81.04;99595.03;5071014;28;20040;-46
2024/03/30 08:54:26;;;;;;;20.83;12.30;;;;;;;13.96;80.55;99590.25;5068906;28;20036;-45
2024/03/30 08:56:52;;;;;;;19.92;11.98;;;;;;;14.15;80.11;99585.44;5070869;28;20048;-45
2024/03/30 08:59:17;;;;;;;19.70;12.30;;;;;;;14.26;79.59;99587.88;5070735;28;20044;-45
2024/03/30 09:01:42;;;;;;;19.80;11.25;;;;;;;14.00;80.42;99573.56;5070149;28;20095;-45
2024/03/30 09:04:08;;;;;;;20.55;12.10;;;;;;;13.97;80.47;99571.00;5071381;28;20037;-44
2024/03/30 09:06:33;;;;;;;16.15;9.73;;;;;;;13.68;81.19;99565.50;5070542;28;20036;-47
2024/03/30 09:08:58;;;;;;;18.90;10.05;;;;;;;13.52;81.87;99564.06;5070466;28;20040;-43
2024/03/30 09:11:25;;;;;;;17.17;10.15;;;;;;;13.82;80.58;99556.47;5070645;28;20076;-46
2024/03/30 09:13:50;;;;;;;22.27;12.48;;;;;;;13.67;81.60;99561.13;5069983;28;20056;-45
2024/03/30 09:16:15;;;;;;;23.58;12.77;;;;;;;14.00;80.69;99557.84;5070580;28;20484;-44
2024/03/30 09:18:41;;;;;;;23.35;14.05;;;;;;;13.77;80.88;99552.22;5069977;28;20569;-46
2024/03/30 09:21:07;;;;;;;24.40;15.15;;;;;;;13.75;81.60;99561.84;5070404;28;20062;-46
2024/03/30 09:23:32;;;;;;;27.88;16.33;;;;;;;13.81;81.08;99565.22;5069772;28;20040;-46
2024/03/30 09:25:57;;;;;;;27.95;16.63;;;;;;;13.87;81.10;99548.50;5070225;28;20032;-47
2024/03/30 09:28:23;;;;;;;29.50;17.75;;;;;;;13.66;82.07;99543.72;5070736;28;20071;-46
2024/03/30 09:30:49;;;;;;;31.67;18.50;;;;;;;13.87;81.79;99545.88;5071331;28;20140;-50
2024/03/30 09:33:15;;;;;;;29.73;18.42;;;;;;;13.86;81.57;99540.66;5072908;28;20024;-46
2024/03/30 09:35:41;;;;;;;32.53;18.73;;;;;;;13.85;81.18;99536.31;5074004;28;20090;-46
2024/03/30 09:38:06;;;;;;;29.13;18.42;;;;;;;14.02;81.18;99534.22;5072765;28;20051;-44
2024/03/30 09:40:35;;;;;;;26.27;15.73;;;;;;;13.95;80.91;99536.13;5071726;28;20449;-46
2024/03/30 09:43:00;;;;;;;26.27;15.93;;;;;;;13.65;83.09;99529.78;5071962;28;20560;-44
2024/03/30 09:45:27;;;;;;;25.45;15.43;;;;;;;13.83;82.03;99539.00;5071475;28;20033;-46
2024/03/30 09:47:57;;;;;;;22.85;14.55;;;;;;;14.03;81.40;99536.78;5071893;28;20032;-44
2024/03/30 09:50:23;;;;;;;25.38;15.13;;;;;;;13.77;81.88;99526.03;5071249;28;20649;-47
2024/03/30 09:52:50;;;;;;;22.02;14.13;;;;;;;13.91;81.61;99537.06;5070757;28;20032;-45
2024/03/30 09:55:17;;;;;;;20.10;13.07;;;;;;;13.88;82.02;99539.75;5070440;28;20033;-48
2024/03/30 09:57:47;;;;;;;19.20;12.15;;;;;;;14.10;81.12;99543.63;5069782;28;20403;-46
2024/03/30 10:00:14;;;;;;;20.25;11.63;;;;;;;14.12;80.67;99546.22;5069985;28;20029;-45
2024/03/30 10:02:39;;;;;;;17.23;11.07;;;;;;;14.25;80.59;99545.06;5069899;28;20040;-46
2024/03/30 10:05:10;;;;;;;16.27;11.05;;;;;;;14.11;81.01;99552.34;5070502;28;20556;-45
2024/03/30 10:07:47;;;;;;;15.68;9.27;;;;;;;14.03;80.76;99557.75;5070169;28;20090;-44
2024/03/30 10:10:16;;;;;;;11.15;7.72;;;;;;;13.60;81.79;99562.19;5070755;28;20035;-44
2024/03/30 10:13:04;;;;;;;10.20;7.18;;;;;;;13.93;81.17;99555.38;5069266;28;20052;-46
2024/03/30 10:16:02;;;;;;;9.48;6.38;;;;;;;13.91;81.26;99558.00;5069172;28;20044;-46
2024/03/30 10:18:28;;;;;;;7.50;4.78;;;;;;;13.87;81.35;99551.13;5068985;28;20124;-49
2024/03/30 10:20:53;;;;;;;8.80;5.10;;;;;;;14.13;80.50;99559.31;5070017;28;20119;-46
2024/03/30 10:23:19;;;;;;;6.78;4.15;;;;;;;13.90;80.89;99553.69;5070126;28;20103;-45
2024/03/30 10:25:54;;;;;;;7.05;4.10;;;;;;;14.10;80.37;99550.63;5069380;28;20079;-47
2024/03/30 10:28:21;;;;;;;6.45;3.97;;;;;;;14.02;80.66;99542.94;5069512;28;20037;-45
2024/03/30 10:30:47;;;;;;;5.75;3.72;;;;;;;13.80;80.24;99549.53;5069074;28;20059;-48
2024/03/30 10:33:14;;;;;;;6.90;3.75;;;;;;;13.62;82.02;99557.75;5069354;28;20063;-48
2024/03/30 10:35:43;;;;;;;6.65;3.72;;;;;;;14.02;80.96;99550.81;5068815;28;20041;-46
2024/03/30 10:38:10;;;;;;;6.75;3.90;;;;;;;13.87;81.52;99550.25;5069471;28;20438;-46
2024/03/30 10:40:38;;;;;;;6.55;3.67;;;;;;;13.73;81.26;99559.25;5068804;28;20036;-46
2024/03/30 10:43:03;;;;;;;8.15;4.00;;;;;;;13.99;82.14;99565.72;5069421;28;20063;-42
2024/03/30 10:45:29;;;;;;;8.35;4.47;;;;;;;13.86;82.29;99565.13;5068634;28;20111;-44
2024/03/30 10:47:55;;;;;;;6.45;4.13;;;;;;;13.54;82.79;99568.38;5069566;28;20099;-48
2024/03/30 10:50:21;;;;;;;7.32;4.07;;;;;;;13.51;83.70;99562.34;5069303;28;20044;-46
2024/03/30 10:52:46;;;;;;;6.78;4.32;;;;;;;13.17;85.15;99560.38;5068769;28;20501;-45
2024/03/30 10:55:12;;;;;;;9.23;4.75;;;;;;;12.97;85.99;99555.44;5069080;28;20021;-49
2024/03/30 10:57:38;;;;;;;9.07;3.85;;;;;;;12.99;85.32;99565.91;5068744;28;20037;-45
2024/03/30 11:00:07;;;;;;;7.18;4.00;;;;;;;13.25;85.57;99581.16;5069556;28;20062;-45
2024/03/30 11:02:33;;;;;;;6.03;3.60;;;;;;;13.28;84.27;99571.50;5067383;28;20507;-45
2024/03/30 11:05:00;;;;;;;6.95;4.10;;;;;;;13.29;84.96;99567.13;5069370;28;20120;-44
2024/03/30 11:07:27;;;;;;;4.88;3.20;;;;;;;12.63;85.79;99566.47;5068940;28;20610;-44
2024/03/30 11:09:52;;;;;;;6.03;3.38;;;;;;;13.15;84.70;99567.38;5069240;28;20036;-45
2024/03/30 11:12:18;;;;;;;6.68;3.25;;;;;;;12.86;85.88;99569.59;5069137;28;20403;-44
2024/03/30 11:14:43;;;;;;;6.13;2.90;;;;;;;12.92;86.08;99588.69;5068867;28;20043;-46
2024/03/30 11:17:27;;;;;;;6.40;3.25;;;;;;;13.12;85.89;99588.34;5069151;28;20029;-44
2024/03/30 11:20:03;;;;;;;5.32;3.25;;;;;;;13.29;84.72;99588.06;5061604;28;20487;-50
2024/03/30 11:22:52;;;;;;;5.10;3.00;;;;;;;13.18;85.43;99577.78;5069076;28;20127;-49
2024/03/30 11:25:21;;;;;;;4.75;2.63;;;;;;;13.38;84.67;99583.53;5069807;28;20440;-46
2024/03/30 11:27:49;;;;;;;4.70;3.10;;;;;;;13.48;84.42;99588.59;5071488;28;20036;-48
2024/03/30 11:30:27;;;;;;;4.97;2.67;;;;;;;13.65;83.56;99590.00;5073352;28;20116;-44
2024/03/30 11:33:26;;;;;;;4.45;2.75;;;;;;;13.67;83.16;99593.44;5073218;28;20052;-49
2024/03/30 11:36:05;;;;;;;4.70;3.05;;;;;;;13.80;83.29;99588.81;5059243;28;20518;-46
2024/03/30 11:38:32;;;;;;;4.78;2.83;;;;;;;13.77;82.91;99588.91;5073435;28;20044;-45